Norway, South Carolina
Current Conditions -  °F | °C
As of 12:51 PM on Monday 22 Dec 2014 (Local Time) from KOGB Reporting Station
Moderate Rain Moderate Rain  
Wind Chill: 42°   Ceiling: 600
Heat Index: 45°   Visibility: 4mi
Dew Point: 43°   Wind: 5mph
Humidity: 93%   Direction: NA
Pressure: 30.03"   Gusts: NA
Location:  33.45°N, 81.13°W
Report Text: KOGB 221751Z AUTO VRB04KT 4SM RA BR OVC006 07/06 A3003 RMK AO2 P0011
Loading
Personal Weather Stations






























Interactive Weather Map New forecast layout! Learn more

10-Day Weather Forecast

Advertisements
Track Severe Weather on mobile